Forside
METAR-TAF:

METAR-TAF

Lufthavne :

Joliet Regional Airport

Joliet, Illinois, USA

Breddekreds: 41-31-05N, længdekreds: 088-10-31W, højde: 177 m

Aktuelle vejr

Denne rapport blev lavet for 29 minutter siden, kl. 18:55 UTC
Vind 3 kt fra vestsydvest
Temperatur 7°C
Fugtighed 42%
Tryk 1027 hPa
Sigt: 16.1 km
skyfri

METAR: KJOT 021855Z AUTO 24003KT 10SM CLR 07/M05 A3034 RMK AO2 T00681051

Tid: 13:24 (19:24 UTC)


TAF: fraværende

Vejrobservationer og prognoser fra mere end 4000 lufthavne (METAR og TAF).

De gule og røde prikker repræsenterer de meteorologiske stationer.

Flyt musen over at se navnet på stationen.

Så klik over at se vejr observationer og prognoser.

At skifte det kort: Klik på de grønne knapper med et sort kors for at zoome ind; på den grønne knap med en bindestreg for at zoome ud; eller på de grønne pile for tilstødende kort.


METAR-TAF: